Time;durP1;ratioP1;P1;durP2;ratioP2;P2;SDS_P1;SDS_P2;PMS_P1;PMS_P2;Temp;Humidity;BMP_temperature;BMP_pressure;BME280_temperature;BME280_humidity;BME280_pressure;Samples;Min_cycle;Max_cycle;Signal;HPM_P1;HPM_P2
2022/04/26 03:38:16;;;;;;;0.00;0.00;;;;;;;;;;5067746;28;20039;-61
2022/04/26 03:40:41;;;;;;;0.00;0.00;;;;;;;;;;5067370;28;20106;-62
2022/04/26 03:43:07;;;;;;;0.00;0.00;;;;;;;;;;5068143;28;20049;-62
2022/04/26 03:45:32;;;;;;;0.00;0.00;;;;;;;;;;5066843;28;20107;-62
2022/04/26 03:47:57;;;;;;;0.00;0.00;;;;;;;;;;5066535;28;20045;-61
2022/04/26 03:50:22;;;;;;;0.00;0.00;;;;;;;;;;5066119;28;20024;-62
2022/04/26 03:52:52;;;;;;;0.00;0.00;;;;;;;;;;5067679;28;20027;-62
2022/04/26 03:55:17;;;;;;;0.03;0.03;;;;;;;;;;5067782;28;20024;-62
2022/04/26 03:57:43;;;;;;;0.00;0.00;;;;;;;;;;5067190;28;20035;-61
2022/04/26 04:00:08;;;;;;;0.00;0.00;;;;;;;;;;5067734;28;20462;-61
2022/04/26 04:02:36;;;;;;;0.00;0.00;;;;;;;;;;5066794;28;20025;-62
2022/04/26 04:05:01;;;;;;;0.00;0.00;;;;;;;;;;5067318;28;20021;-61
2022/04/26 04:07:27;;;;;;;0.00;0.00;;;;;;;;;;5067670;28;20047;-61
2022/04/26 04:09:52;;;;;;;0.00;0.00;;;;;;;;;;5066687;28;20086;-61
2022/04/26 04:12:17;;;;;;;0.00;0.00;;;;;;;;;;5066862;28;20082;-62
2022/04/26 04:14:42;;;;;;;0.00;0.00;;;;;;;;;;5067018;28;20070;-63
2022/04/26 04:17:08;;;;;;;0.00;0.00;;;;;;;;;;5065676;28;20024;-62
2022/04/26 04:19:33;;;;;;;0.00;0.00;;;;;;;;;;5065957;28;20016;-62
2022/04/26 04:21:58;;;;;;;0.00;0.00;;;;;;;;;;5066788;28;20020;-62
2022/04/26 04:24:23;;;;;;;0.00;0.00;;;;;;;;;;5069893;28;20012;-62
2022/04/26 04:26:48;;;;;;;0.00;0.00;;;;;;;;;;5070294;28;20048;-62
2022/04/26 04:29:14;;;;;;;0.00;0.00;;;;;;;;;;5069325;28;20455;-62
2022/04/26 04:31:40;;;;;;;0.00;0.00;;;;;;;;;;5070315;28;20028;-63
2022/04/26 04:34:06;;;;;;;0.00;0.00;;;;;;;;;;5070720;28;20073;-63
2022/04/26 04:36:31;;;;;;;0.00;0.00;;;;;;;;;;5070216;28;20036;-62
2022/04/26 04:38:56;;;;;;;0.00;0.00;;;;;;;;;;5069557;28;20135;-63
2022/04/26 04:41:22;;;;;;;0.65;0.65;;;;;;;;;;5070175;28;20024;-62
2022/04/26 04:43:47;;;;;;;0.00;0.00;;;;;;;;;;5069461;28;20027;-62
2022/04/26 04:46:12;;;;;;;0.00;0.00;;;;;;;;;;5067941;28;20020;-61
2022/04/26 04:48:37;;;;;;;0.00;0.00;;;;;;;;;;5070091;28;20389;-62
2022/04/26 04:51:03;;;;;;;0.00;0.00;;;;;;;;;;5069916;28;20067;-62
2022/04/26 04:53:28;;;;;;;0.00;0.00;;;;;;;;;;5068436;28;20024;-62
2022/04/26 04:55:53;;;;;;;0.00;0.00;;;;;;;;;;5069942;28;20089;-62
2022/04/26 04:58:18;;;;;;;4.30;4.20;;;;;;;;;;5070276;28;20032;-61
2022/04/26 05:00:44;;;;;;;0.00;0.00;;;;;;;;;;5069627;28;20021;-62
2022/04/26 05:03:09;;;;;;;0.00;0.00;;;;;;;;;;5071623;28;20016;-62
2022/04/26 05:05:35;;;;;;;0.00;0.00;;;;;;;;;;5069465;28;20109;-62
2022/04/26 05:08:00;;;;;;;0.00;0.00;;;;;;;;;;5069605;28;20085;-62
2022/04/26 05:10:25;;;;;;;0.00;0.00;;;;;;;;;;5068687;28;20476;-62
2022/04/26 05:12:51;;;;;;;0.00;0.00;;;;;;;;;;5069760;28;20217;-62
2022/04/26 05:15:16;;;;;;;0.00;0.00;;;;;;;;;;5068374;28;20453;-62
2022/04/26 05:17:41;;;;;;;0.00;0.00;;;;;;;;;;5068856;28;20165;-61
2022/04/26 05:20:08;;;;;;;0.00;0.00;;;;;;;;;;5068142;28;20020;-62
2022/04/26 05:24:53;;;;;;;0.00;0.00;;;;;;;;;;5069125;28;20460;-62
2022/04/26 05:25:18;;;;;;;0.00;0.00;;;;;;;;;;5069261;28;20442;-61
2022/04/26 05:27:43;;;;;;;0.00;0.00;;;;;;;;;;5068855;28;20056;-62
2022/04/26 05:30:09;;;;;;;0.00;0.00;;;;;;;;;;5069580;28;20099;-62
2022/04/26 05:32:34;;;;;;;0.00;0.00;;;;;;;;;;5069482;28;20570;-62
2022/04/26 05:35:03;;;;;;;0.00;0.00;;;;;;;;;;5069208;28;20370;-62
2022/04/26 05:37:32;;;;;;;0.00;0.00;;;;;;;;;;5069473;28;20093;-62
2022/04/26 05:40:02;;;;;;;0.00;0.00;;;;;;;;;;5069469;28;20584;-62
2022/04/26 05:42:31;;;;;;;0.00;0.00;;;;;;;;;;5068005;28;20263;-62
2022/04/26 05:44:57;;;;;;;0.00;0.00;;;;;;;;;;5068845;28;20377;-62
2022/04/26 05:47:22;;;;;;;0.00;0.00;;;;;;;;;;5069296;28;20035;-62
2022/04/26 05:49:47;;;;;;;0.00;0.00;;;;;;;;;;5067438;28;20028;-63
2022/04/26 05:52:13;;;;;;;0.00;0.00;;;;;;;;;;5069087;28;20024;-62
2022/04/26 05:54:38;;;;;;;1.15;1.05;;;;;;;;;;5068546;28;20027;-61
2022/04/26 05:57:04;;;;;;;0.77;0.77;;;;;;;;;;5066660;28;20461;-62
2022/04/26 05:59:29;;;;;;;1.73;1.65;;;;;;;;;;5068695;28;20390;-62
2022/04/26 06:01:54;;;;;;;2.67;1.70;;;;;;;;;;5068855;28;20048;-62
2022/04/26 06:04:20;;;;;;;0.15;0.15;;;;;;;;;;5069213;28;20024;-62
2022/04/26 06:06:45;;;;;;;0.00;0.00;;;;;;;;;;5068466;28;20032;-62
2022/04/26 06:09:13;;;;;;;6.82;1.73;;;;;;;;;;5069240;28;20025;-61
2022/04/26 06:11:39;;;;;;;0.45;0.45;;;;;;;;;;5069042;28;20362;-62
2022/04/26 06:14:05;;;;;;;0.00;0.00;;;;;;;;;;5067974;28;20138;-61
2022/04/26 06:16:30;;;;;;;0.00;0.00;;;;;;;;;;5068640;28;20101;-62
2022/04/26 06:18:55;;;;;;;0.00;0.00;;;;;;;;;;5068191;28;20024;-62
2022/04/26 06:21:20;;;;;;;1.00;1.00;;;;;;;;;;5068484;28;20081;-62
2022/04/26 06:23:46;;;;;;;0.00;0.00;;;;;;;;;;5068218;28;20057;-62
2022/04/26 06:26:11;;;;;;;0.00;0.00;;;;;;;;;;5068112;28;20026;-63
2022/04/26 06:28:36;;;;;;;0.00;0.00;;;;;;;;;;5068775;28;20154;-63
2022/04/26 06:31:02;;;;;;;0.77;0.75;;;;;;;;;;5068834;28;20036;-60
2022/04/26 06:33:28;;;;;;;0.00;0.00;;;;;;;;;;5068549;28;20350;-63
2022/04/26 06:35:53;;;;;;;0.00;0.00;;;;;;;;;;5068652;28;20384;-65
2022/04/26 06:38:18;;;;;;;0.00;0.00;;;;;;;;;;5067758;28;20024;-63
2022/04/26 06:40:46;;;;;;;0.00;0.00;;;;;;;;;;5067087;28;20020;-63
2022/04/26 06:43:11;;;;;;;0.00;0.00;;;;;;;;;;5068110;28;20086;-62
2022/04/26 06:45:37;;;;;;;0.00;0.00;;;;;;;;;;5067521;28;20016;-63
2022/04/26 06:48:06;;;;;;;0.00;0.00;;;;;;;;;;5048125;28;20032;-62
2022/04/26 06:50:31;;;;;;;0.00;0.00;;;;;;;;;;5067920;28;20021;-61
2022/04/26 06:52:56;;;;;;;0.00;0.00;;;;;;;;;;5068181;28;20346;-62
2022/04/26 06:55:21;;;;;;;0.00;0.00;;;;;;;;;;5068167;28;20078;-62
2022/04/26 06:57:47;;;;;;;0.00;0.00;;;;;;;;;;5045771;28;20029;-64
2022/04/26 07:00:12;;;;;;;0.28;0.28;;;;;;;;;;5068685;28;20131;-63
2022/04/26 07:02:37;;;;;;;0.00;0.00;;;;;;;;;;5065619;28;20074;-64
2022/04/26 07:05:03;;;;;;;0.00;0.00;;;;;;;;;;5067650;28;20027;-63
2022/04/26 07:07:28;;;;;;;0.00;0.00;;;;;;;;;;5067578;28;20051;-63
2022/04/26 07:09:53;;;;;;;0.00;0.00;;;;;;;;;;5067698;28;20020;-63
2022/04/26 07:12:18;;;;;;;1.17;1.08;;;;;;;;;;5068855;28;20138;-63
2022/04/26 07:14:44;;;;;;;0.85;0.85;;;;;;;;;;5066981;28;20024;-63
2022/04/26 07:17:10;;;;;;;0.45;0.45;;;;;;;;;;5068460;28;20044;-63
2022/04/26 07:19:35;;;;;;;0.00;0.00;;;;;;;;;;5067927;28;20044;-63
2022/04/26 07:22:02;;;;;;;0.00;0.00;;;;;;;;;;5068345;28;20055;-63
2022/04/26 07:24:27;;;;;;;0.00;0.00;;;;;;;;;;5068170;28;20469;-61
2022/04/26 07:26:54;;;;;;;0.00;0.00;;;;;;;;;;5067201;28;20106;-63
2022/04/26 07:29:19;;;;;;;0.00;0.00;;;;;;;;;;5068378;28;20369;-62
2022/04/26 07:31:45;;;;;;;0.00;0.00;;;;;;;;;;5066857;28;20025;-63
2022/04/26 07:34:23;;;;;;;0.00;0.00;;;;;;;;;;5068004;28;20078;-64
2022/04/26 07:36:52;;;;;;;0.00;0.00;;;;;;;;;;5067286;28;20030;-64
2022/04/26 07:39:18;;;;;;;0.00;0.00;;;;;;;;;;5066348;28;20064;-63
2022/04/26 07:41:44;;;;;;;0.00;0.00;;;;;;;;;;5067154;28;20504;-63
2022/04/26 07:44:09;;;;;;;0.00;0.00;;;;;;;;;;5067928;28;20063;-63
2022/04/26 07:46:35;;;;;;;0.00;0.00;;;;;;;;;;5067489;28;20044;-63
2022/04/26 07:49:00;;;;;;;0.00;0.00;;;;;;;;;;5067496;28;20021;-64
2022/04/26 07:51:25;;;;;;;0.08;0.08;;;;;;;;;;5067810;28;20415;-64
2022/04/26 07:53:50;;;;;;;0.00;0.00;;;;;;;;;;5066344;28;20501;-64
2022/04/26 07:56:16;;;;;;;0.80;0.80;;;;;;;;;;5067382;28;20365;-64
2022/04/26 07:58:41;;;;;;;0.68;0.68;;;;;;;;;;5069993;28;20081;-64
2022/04/26 08:01:06;;;;;;;0.10;0.10;;;;;;;;;;5068161;28;20097;-64
2022/04/26 08:03:35;;;;;;;0.75;0.75;;;;;;;;;;5070971;28;20655;-64
2022/04/26 08:06:00;;;;;;;0.00;0.00;;;;;;;;;;5071550;28;20035;-64
2022/04/26 08:08:26;;;;;;;0.20;0.20;;;;;;;;;;5068364;28;20024;-63
2022/04/26 08:10:51;;;;;;;0.43;0.28;;;;;;;;;;5071269;28;20410;-65
2022/04/26 08:13:17;;;;;;;1.02;1.02;;;;;;;;;;5071397;28;20551;-65
2022/04/26 08:15:42;;;;;;;3.03;2.83;;;;;;;;;;5070807;28;20039;-64
2022/04/26 08:18:07;;;;;;;1.45;1.25;;;;;;;;;;5073574;28;20095;-62
2022/04/26 08:20:33;;;;;;;1.95;0.22;;;;;;;;;;5070729;28;20111;-64
2022/04/26 08:22:58;;;;;;;0.00;0.00;;;;;;;;;;5071363;28;20397;-64
2022/04/26 08:28:07;;;;;;;2.42;2.33;;;;;;;;;;5069546;28;20062;-66
2022/04/26 08:30:34;;;;;;;0.00;0.00;;;;;;;;;;5070267;28;20024;-65
2022/04/26 08:32:59;;;;;;;0.00;0.00;;;;;;;;;;5071012;28;20070;-65
2022/04/26 08:35:26;;;;;;;0.00;0.00;;;;;;;;;;5072672;28;20020;-64
2022/04/26 08:37:53;;;;;;;0.00;0.00;;;;;;;;;;5069189;28;20024;-65
2022/04/26 08:40:18;;;;;;;0.00;0.00;;;;;;;;;;5070980;28;20074;-65
2022/04/26 08:42:46;;;;;;;0.00;0.00;;;;;;;;;;5070700;28;20020;-65
2022/04/26 08:45:15;;;;;;;0.00;0.00;;;;;;;;;;5070727;28;20851;-64
2022/04/26 08:53:09;;;;;;;0.00;0.00;;;;;;;;;;5069133;28;20057;-66
2022/04/26 08:55:44;;;;;;;0.00;0.00;;;;;;;;;;5070110;28;20111;-67
2022/04/26 08:58:11;;;;;;;0.20;0.20;;;;;;;;;;5070733;28;20036;-67
2022/04/26 09:00:37;;;;;;;0.00;0.00;;;;;;;;;;5070303;28;20389;-65
2022/04/26 09:03:04;;;;;;;0.00;0.00;;;;;;;;;;5072532;28;20039;-65
2022/04/26 09:05:29;;;;;;;0.00;0.00;;;;;;;;;;5069701;28;20016;-66
2022/04/26 09:07:55;;;;;;;0.00;0.00;;;;;;;;;;5069808;28;20488;-66
2022/04/26 09:10:20;;;;;;;0.00;0.00;;;;;;;;;;5069566;28;20020;-66
2022/04/26 09:13:04;;;;;;;0.00;0.00;;;;;;;;;;5069780;28;20040;-66
2022/04/26 09:15:56;;;;;;;0.00;0.00;;;;;;;;;;5070413;28;20043;-65
2022/04/26 09:18:26;;;;;;;0.00;0.00;;;;;;;;;;5065361;28;20040;-66
2022/04/26 09:21:12;;;;;;;0.00;0.00;;;;;;;;;;5069488;28;20036;-66
2022/04/26 09:23:38;;;;;;;0.00;0.00;;;;;;;;;;5065494;28;20044;-63
2022/04/26 09:26:15;;;;;;;0.32;0.30;;;;;;;;;;5068312;28;20024;-69
2022/04/26 09:28:50;;;;;;;2.42;2.25;;;;;;;;;;5067802;28;20040;-66
2022/04/26 09:31:18;;;;;;;3.15;1.30;;;;;;;;;;5068698;28;20035;-68
2022/04/26 09:33:47;;;;;;;1.85;1.75;;;;;;;;;;5068348;28;20114;-70
2022/04/26 09:36:13;;;;;;;9.45;2.90;;;;;;;;;;5065695;28;20024;-69
2022/04/26 09:38:39;;;;;;;2.95;2.75;;;;;;;;;;5068426;28;20370;-68
2022/04/26 09:41:08;;;;;;;1.95;1.83;;;;;;;;;;5065975;28;20491;-69
2022/04/26 09:43:33;;;;;;;0.80;0.80;;;;;;;;;;5049451;28;20028;-69
2022/04/26 09:45:59;;;;;;;0.13;0.13;;;;;;;;;;5066529;28;20031;-70
2022/04/26 09:48:29;;;;;;;2.17;2.05;;;;;;;;;;5068980;28;20473;-69
2022/04/26 09:50:54;;;;;;;;;;;;;;;;;;5068675;28;20021;-69
2022/04/26 09:53:20;;;;;;;1.70;1.48;;;;;;;;;;5068062;28;20318;-69
2022/04/26 09:55:46;;;;;;;5.85;2.22;;;;;;;;;;5067645;28;20513;-69
2022/04/26 09:58:13;;;;;;;0.98;0.98;;;;;;;;;;5067869;28;20464;-68
2022/04/26 10:00:39;;;;;;;0.77;0.65;;;;;;;;;;5067282;28;20035;-68
2022/04/26 10:03:06;;;;;;;3.08;1.13;;;;;;;;;;5065576;28;20021;-68
2022/04/26 10:05:36;;;;;;;0.35;0.35;;;;;;;;;;5067791;28;20102;-67
2022/04/26 10:08:03;;;;;;;0.30;0.30;;;;;;;;;;5066613;28;20028;-67
2022/04/26 10:10:28;;;;;;;1.02;1.02;;;;;;;;;;5067660;28;20059;-66
2022/04/26 10:15:39;;;;;;;1.27;0.47;;;;;;;;;;5066722;28;20039;-66
2022/04/26 10:18:22;;;;;;;0.25;0.25;;;;;;;;;;5067509;28;20028;-67
2022/04/26 10:20:48;;;;;;;0.00;0.00;;;;;;;;;;5065887;28;20504;-67
2022/04/26 10:23:13;;;;;;;0.32;0.32;;;;;;;;;;5064753;28;20060;-66
2022/04/26 10:25:38;;;;;;;1.05;1.05;;;;;;;;;;5066953;28;20099;-67
2022/04/26 10:28:29;;;;;;;0.00;0.00;;;;;;;;;;5065824;28;20045;-66
2022/04/26 10:30:55;;;;;;;0.15;0.15;;;;;;;;;;5067950;28;20039;-64
2022/04/26 10:33:43;;;;;;;0.00;0.00;;;;;;;;;;5065505;28;20031;-64
2022/04/26 10:36:20;;;;;;;0.43;0.43;;;;;;;;;;5062727;28;20028;-62
2022/04/26 10:39:04;;;;;;;0.20;0.20;;;;;;;;;;5067380;28;20028;-63
2022/04/26 10:41:36;;;;;;;0.47;0.43;;;;;;;;;;5066846;28;20020;-63
2022/04/26 10:44:13;;;;;;;0.10;0.10;;;;;;;;;;5068097;28;20047;-64
2022/04/26 10:46:39;;;;;;;0.05;0.05;;;;;;;;;;5066860;28;20028;-62
2022/04/26 10:49:26;;;;;;;0.70;0.70;;;;;;;;;;5068306;28;20032;-63
2022/04/26 10:51:52;;;;;;;0.90;0.40;;;;;;;;;;5067454;28;20492;-62
2022/04/26 10:54:36;;;;;;;0.00;0.00;;;;;;;;;;5069548;28;20028;-62
2022/04/26 10:57:01;;;;;;;0.50;0.50;;;;;;;;;;5048523;28;20538;-62
2022/04/26 10:59:27;;;;;;;0.20;0.20;;;;;;;;;;5066523;28;20020;-64
2022/04/26 11:01:52;;;;;;;0.57;0.57;;;;;;;;;;5066662;28;20028;-63
2022/04/26 11:04:18;;;;;;;0.00;0.00;;;;;;;;;;5069227;28;20081;-62
2022/04/26 11:06:43;;;;;;;0.08;0.05;;;;;;;;;;5070082;28;20118;-64
2022/04/26 11:09:10;;;;;;;0.00;0.00;;;;;;;;;;5066699;28;20020;-63
2022/04/26 11:11:50;;;;;;;0.30;0.30;;;;;;;;;;5067864;28;20028;-63
2022/04/26 11:14:19;;;;;;;0.55;0.55;;;;;;;;;;5067610;28;20044;-62
2022/04/26 11:16:44;;;;;;;;;;;;;;;;;;5068151;28;20474;-64
2022/04/26 11:19:10;;;;;;;0.20;0.10;;;;;;;;;;5068304;28;19916;-62
2022/04/26 11:21:36;;;;;;;0.10;0.10;;;;;;;;;;5067377;28;20021;-63
2022/04/26 11:29:51;;;;;;;0.20;0.13;;;;;;;;;;5067166;28;20070;-63
2022/04/26 11:32:30;;;;;;;0.00;0.00;;;;;;;;;;5069783;28;20039;-63
2022/04/26 11:34:56;;;;;;;0.80;0.80;;;;;;;;;;5071471;28;20041;-63
2022/04/26 11:37:21;;;;;;;0.30;0.30;;;;;;;;;;5070401;28;20020;-63
2022/04/26 11:39:47;;;;;;;2.05;0.52;;;;;;;;;;5071837;28;20023;-63
2022/04/26 11:42:12;;;;;;;0.00;0.00;;;;;;;;;;5071621;28;20028;-64
2022/04/26 11:44:56;;;;;;;0.00;0.00;;;;;;;;;;5048842;28;20028;-63
2022/04/26 11:47:35;;;;;;;0.17;0.17;;;;;;;;;;5071595;28;20016;-63
2022/04/26 11:50:10;;;;;;;0.00;0.00;;;;;;;;;;5070576;28;20081;-63
2022/04/26 11:52:35;;;;;;;0.00;0.00;;;;;;;;;;5071013;28;20477;-64
2022/04/26 11:55:00;;;;;;;0.20;0.20;;;;;;;;;;5071266;28;20021;-64
2022/04/26 11:57:26;;;;;;;5.47;0.30;;;;;;;;;;5070633;28;20103;-64
2022/04/26 11:59:51;;;;;;;0.00;0.00;;;;;;;;;;5068949;28;20070;-64
2022/04/26 12:02:16;;;;;;;0.17;0.17;;;;;;;;;;5071387;28;20666;-65
2022/04/26 12:04:41;;;;;;;0.00;0.00;;;;;;;;;;5070924;28;20013;-64
2022/04/26 12:07:07;;;;;;;0.00;0.00;;;;;;;;;;5071306;28;20702;-64
2022/04/26 12:09:32;;;;;;;0.03;0.03;;;;;;;;;;5051046;28;20131;-64
2022/04/26 12:12:02;;;;;;;0.45;0.35;;;;;;;;;;5069262;28;20500;-64
2022/04/26 12:14:28;;;;;;;0.00;0.00;;;;;;;;;;5069288;28;20488;-64
2022/04/26 12:16:56;;;;;;;0.00;0.00;;;;;;;;;;5069611;28;20040;-63
2022/04/26 12:19:37;;;;;;;0.10;0.10;;;;;;;;;;5070087;28;20028;-64
2022/04/26 12:22:03;;;;;;;0.00;0.00;;;;;;;;;;5069568;28;20013;-64
2022/04/26 12:24:29;;;;;;;0.00;0.00;;;;;;;;;;5071090;28;20024;-64
2022/04/26 12:26:54;;;;;;;0.00;0.00;;;;;;;;;;5048265;28;20051;-63
2022/04/26 12:29:20;;;;;;;0.00;0.00;;;;;;;;;;5070728;28;20028;-64
2022/04/26 12:31:47;;;;;;;0.00;0.00;;;;;;;;;;5070509;28;20031;-64
2022/04/26 12:34:17;;;;;;;0.13;0.13;;;;;;;;;;5071115;28;20178;-64
2022/04/26 12:37:00;;;;;;;0.00;0.00;;;;;;;;;;5071268;28;20020;-64
2022/04/26 12:39:26;;;;;;;0.00;0.00;;;;;;;;;;5071017;28;20466;-63
2022/04/26 12:41:52;;;;;;;0.10;0.10;;;;;;;;;;5068808;28;20078;-64
2022/04/26 12:44:18;;;;;;;0.00;0.00;;;;;;;;;;5069584;28;20043;-65
2022/04/26 12:46:44;;;;;;;0.00;0.00;;;;;;;;;;5070002;28;20056;-65
2022/04/26 12:51:54;;;;;;;0.00;0.00;;;;;;;;;;5070097;28;20098;-66
2022/04/26 12:54:19;;;;;;;0.08;0.08;;;;;;;;;;5070582;28;20081;-66
2022/04/26 12:57:01;;;;;;;0.08;0.08;;;;;;;;;;5068935;28;20028;-66
2022/04/26 12:59:36;;;;;;;0.10;0.10;;;;;;;;;;5070020;28;20059;-66
2022/04/26 13:02:02;;;;;;;0.65;0.65;;;;;;;;;;5070211;28;20095;-66
2022/04/26 13:04:27;;;;;;;0.00;0.00;;;;;;;;;;5070999;28;20133;-66
2022/04/26 13:06:53;;;;;;;0.00;0.00;;;;;;;;;;5069848;28;20465;-65
2022/04/26 13:09:18;;;;;;;0.00;0.00;;;;;;;;;;5070125;28;20508;-65
2022/04/26 13:11:44;;;;;;;0.10;0.10;;;;;;;;;;5069772;28;20504;-65
2022/04/26 13:14:09;;;;;;;0.00;0.00;;;;;;;;;;5069931;28;20027;-65
2022/04/26 13:16:35;;;;;;;0.00;0.00;;;;;;;;;;5044897;28;20032;-66
2022/04/26 13:19:00;;;;;;;0.88;0.85;;;;;;;;;;5069489;28;20017;-65
2022/04/26 13:21:26;;;;;;;0.00;0.00;;;;;;;;;;5070238;28;20043;-65
2022/04/26 13:23:52;;;;;;;2.05;1.95;;;;;;;;;;5067906;28;20016;-65
2022/04/26 13:26:17;;;;;;;0.00;0.00;;;;;;;;;;5063916;28;20912;-65
2022/04/26 13:28:43;;;;;;;0.30;0.30;;;;;;;;;;5068503;28;20040;-65
2022/04/26 13:31:08;;;;;;;1.15;1.15;;;;;;;;;;5069637;28;20107;-65
2022/04/26 13:33:33;;;;;;;0.35;0.17;;;;;;;;;;5069430;28;20481;-64
2022/04/26 13:35:59;;;;;;;0.20;0.20;;;;;;;;;;5068869;28;20693;-65
2022/04/26 13:38:24;;;;;;;0.43;0.43;;;;;;;;;;5069220;28;20105;-64
2022/04/26 13:40:52;;;;;;;1.15;0.77;;;;;;;;;;5068867;28;20092;-64
2022/04/26 13:43:19;;;;;;;0.68;0.57;;;;;;;;;;5069195;28;20462;-65
2022/04/26 13:45:44;;;;;;;0.10;0.10;;;;;;;;;;5067456;28;20039;-65
2022/04/26 13:48:13;;;;;;;0.80;0.52;;;;;;;;;;5069432;28;20480;-65
2022/04/26 13:50:39;;;;;;;1.33;1.23;;;;;;;;;;5069624;28;20097;-64
2022/04/26 13:53:05;;;;;;;1.33;0.85;;;;;;;;;;5064624;28;20029;-64
2022/04/26 13:55:30;;;;;;;0.65;0.47;;;;;;;;;;5068293;28;20430;-64
2022/04/26 13:57:56;;;;;;;3.33;2.03;;;;;;;;;;5068659;28;20028;-65
2022/04/26 14:00:21;;;;;;;0.80;0.77;;;;;;;;;;5070601;28;20103;-64
2022/04/26 14:02:48;;;;;;;1.88;0.75;;;;;;;;;;5050965;28;20032;-64
2022/04/26 14:05:14;;;;;;;1.17;1.08;;;;;;;;;;5068911;28;20104;-64
2022/04/26 14:07:40;;;;;;;0.00;0.00;;;;;;;;;;5068866;28;20095;-64
2022/04/26 14:10:06;;;;;;;0.15;0.15;;;;;;;;;;5069319;28;20370;-64
2022/04/26 14:12:31;;;;;;;1.80;1.80;;;;;;;;;;5068851;28;20154;-64
2022/04/26 14:23:19;;;;;;;0.93;0.93;;;;;;;;;;5067914;28;20108;-64
2022/04/26 14:25:44;;;;;;;2.85;1.95;;;;;;;;;;5068452;28;20528;-65
2022/04/26 14:28:09;;;;;;;0.47;0.47;;;;;;;;;;5067720;28;20400;-64
2022/04/26 14:30:34;;;;;;;1.10;1.00;;;;;;;;;;5068551;28;20036;-64
2022/04/26 14:33:00;;;;;;;2.22;2.13;;;;;;;;;;5068243;28;20543;-65
2022/04/26 14:35:27;;;;;;;3.17;1.27;;;;;;;;;;5068513;28;20472;-64
2022/04/26 14:37:53;;;;;;;0.80;0.80;;;;;;;;;;5067914;28;20028;-64
2022/04/26 14:40:18;;;;;;;2.22;0.25;;;;;;;;;;5068764;28;20750;-64
2022/04/26 14:42:46;;;;;;;2.83;2.22;;;;;;;;;;5067716;28;20021;-64
2022/04/26 14:45:12;;;;;;;1.25;1.25;;;;;;;;;;5069270;28;20549;-65
2022/04/26 14:47:37;;;;;;;0.65;0.65;;;;;;;;;;5068035;28;20029;-63
2022/04/26 14:50:02;;;;;;;2.17;2.08;;;;;;;;;;5067686;28;20028;-63
2022/04/26 14:52:28;;;;;;;4.18;2.50;;;;;;;;;;5067398;28;20070;-63
2022/04/26 14:54:53;;;;;;;0.20;0.20;;;;;;;;;;5067790;28;20027;-63
2022/04/26 14:57:18;;;;;;;0.82;0.82;;;;;;;;;;5068115;28;20476;-62
2022/04/26 14:59:47;;;;;;;1.60;1.55;;;;;;;;;;5065967;28;20488;-63
2022/04/26 15:02:17;;;;;;;0.00;0.00;;;;;;;;;;5068770;28;20020;-62
2022/04/26 15:04:42;;;;;;;0.05;0.05;;;;;;;;;;5067380;28;20032;-63
2022/04/26 15:07:07;;;;;;;1.85;0.57;;;;;;;;;;5067959;28;20078;-63
2022/04/26 15:09:51;;;;;;;1.92;1.83;;;;;;;;;;5068078;28;20528;-63
2022/04/26 15:17:48;;;;;;;0.20;0.20;;;;;;;;;;5066070;28;20085;-63
2022/04/26 15:20:13;;;;;;;1.17;1.08;;;;;;;;;;5064071;28;20024;-63
2022/04/26 15:22:39;;;;;;;1.63;0.80;;;;;;;;;;5065365;28;20024;-63
2022/04/26 15:25:06;;;;;;;6.28;1.88;;;;;;;;;;5067329;28;20032;-63
2022/04/26 15:27:31;;;;;;;0.45;0.45;;;;;;;;;;5067033;28;20386;-63
2022/04/26 15:29:56;;;;;;;2.00;1.85;;;;;;;;;;5067182;28;20040;-63
2022/04/26 15:32:23;;;;;;;2.25;1.35;;;;;;;;;;5068228;28;20029;-63
2022/04/26 15:34:49;;;;;;;2.65;0.40;;;;;;;;;;5067298;28;20021;-64
2022/04/26 15:37:14;;;;;;;1.77;1.67;;;;;;;;;;5067855;28;20699;-64
2022/04/26 15:39:40;;;;;;;1.30;1.30;;;;;;;;;;5067603;28;20039;-63
2022/04/26 15:42:06;;;;;;;0.77;0.77;;;;;;;;;;5067759;28;20402;-63
2022/04/26 15:44:31;;;;;;;2.38;2.22;;;;;;;;;;5067262;28;20120;-64
2022/04/26 15:46:56;;;;;;;0.98;0.55;;;;;;;;;;5067447;28;20024;-63
2022/04/26 15:49:22;;;;;;;1.40;1.27;;;;;;;;;;5066697;28;20021;-64
2022/04/26 15:51:48;;;;;;;0.00;0.00;;;;;;;;;;5067203;28;20363;-63
2022/04/26 15:54:15;;;;;;;0.52;0.52;;;;;;;;;;5067799;28;20563;-64
2022/04/26 15:56:42;;;;;;;1.40;1.30;;;;;;;;;;5066083;28;20020;-64
2022/04/26 15:59:07;;;;;;;2.40;1.20;;;;;;;;;;5067279;28;20467;-64
2022/04/26 16:01:32;;;;;;;2.38;2.28;;;;;;;;;;5067527;28;20024;-64
2022/04/26 16:03:58;;;;;;;0.82;0.68;;;;;;;;;;5066088;28;20408;-63
2022/04/26 16:06:23;;;;;;;0.47;0.38;;;;;;;;;;5065960;28;20024;-62
2022/04/26 16:08:48;;;;;;;0.65;0.65;;;;;;;;;;5066673;28;20099;-64
2022/04/26 16:22:22;;;;;;;0.38;0.38;;;;;;;;;;5034414;28;20120;-64
2022/04/26 16:24:48;;;;;;;0.20;0.20;;;;;;;;;;5068986;28;20103;-64
2022/04/26 16:27:13;;;;;;;1.75;1.08;;;;;;;;;;5070181;28;20079;-63
2022/04/26 16:29:40;;;;;;;1.02;1.02;;;;;;;;;;5063531;28;20028;-63
2022/04/26 16:32:05;;;;;;;2.60;2.13;;;;;;;;;;5069938;28;21137;-64
2022/04/26 16:34:30;;;;;;;1.08;1.00;;;;;;;;;;5070138;28;20035;-65
2022/04/26 16:36:55;;;;;;;1.23;1.13;;;;;;;;;;5070060;28;20016;-65
2022/04/26 16:39:20;;;;;;;0.77;0.77;;;;;;;;;;5070591;28;20203;-64
2022/04/26 16:41:46;;;;;;;2.38;1.15;;;;;;;;;;5069722;28;20024;-64
2022/04/26 16:44:11;;;;;;;0.40;0.40;;;;;;;;;;5070560;28;20031;-64
2022/04/26 16:46:37;;;;;;;1.58;1.48;;;;;;;;;;5069569;28;20028;-63
2022/04/26 16:49:03;;;;;;;2.13;1.65;;;;;;;;;;5070053;28;20032;-64
2022/04/26 16:51:30;;;;;;;1.92;1.23;;;;;;;;;;5068386;28;20032;-64
2022/04/26 16:53:56;;;;;;;0.15;0.15;;;;;;;;;;5067892;28;20104;-63
2022/04/26 16:56:21;;;;;;;0.52;0.52;;;;;;;;;;5069921;28;20017;-64
2022/04/26 16:58:46;;;;;;;1.15;0.88;;;;;;;;;;5070130;28;20030;-64
2022/04/26 17:01:11;;;;;;;2.65;2.45;;;;;;;;;;5069701;28;20012;-64
2022/04/26 17:03:37;;;;;;;2.78;1.30;;;;;;;;;;5069659;28;21788;-65
2022/04/26 17:06:02;;;;;;;0.75;0.60;;;;;;;;;;5068403;28;20024;-65
2022/04/26 17:08:27;;;;;;;1.95;1.85;;;;;;;;;;5070102;28;20103;-65
2022/04/26 17:11:41;;;;;;;3.95;2.08;;;;;;;;;;5070724;28;20075;-65
2022/04/26 17:13:38;;;;;;;0.90;0.73;;;;;;;;;;5071805;28;20035;-65
2022/04/26 17:16:03;;;;;;;0.30;0.30;;;;;;;;;;5068594;28;20029;-66
2022/04/26 17:18:28;;;;;;;0.13;0.13;;;;;;;;;;5069614;28;20028;-65
2022/04/26 17:20:54;;;;;;;0.00;0.00;;;;;;;;;;5066524;28;20037;-64
2022/04/26 17:23:19;;;;;;;0.00;0.00;;;;;;;;;;5069600;28;20028;-64
2022/04/26 17:25:44;;;;;;;0.10;0.10;;;;;;;;;;5069332;28;20027;-64
2022/04/26 17:28:10;;;;;;;0.00;0.00;;;;;;;;;;5067591;28;20105;-64
2022/04/26 17:30:36;;;;;;;1.15;0.35;;;;;;;;;;5068378;28;20609;-64
2022/04/26 17:33:01;;;;;;;0.95;0.80;;;;;;;;;;5068760;28;20026;-64
2022/04/26 17:35:27;;;;;;;0.15;0.15;;;;;;;;;;5068214;28;20493;-64
2022/04/26 17:37:52;;;;;;;1.48;1.33;;;;;;;;;;5068675;28;20028;-64
2022/04/26 17:40:18;;;;;;;0.65;0.65;;;;;;;;;;5069157;28;20032;-64
2022/04/26 17:42:43;;;;;;;0.80;0.80;;;;;;;;;;5046181;28;20056;-64
2022/04/26 17:45:09;;;;;;;0.10;0.10;;;;;;;;;;5067270;28;20465;-65
2022/04/26 17:47:35;;;;;;;1.77;1.17;;;;;;;;;;5068206;28;20024;-66
2022/04/26 17:50:01;;;;;;;0.00;0.00;;;;;;;;;;5066114;28;20043;-65
2022/04/26 17:52:27;;;;;;;0.35;0.35;;;;;;;;;;5068900;28;20017;-65
2022/04/26 17:57:37;;;;;;;0.10;0.10;;;;;;;;;;5067371;28;20098;-64
2022/04/26 18:00:03;;;;;;;0.10;0.10;;;;;;;;;;5064808;28;20021;-64
2022/04/26 18:02:28;;;;;;;0.57;0.57;;;;;;;;;;5066593;28;20095;-64
2022/04/26 18:04:54;;;;;;;1.45;1.35;;;;;;;;;;5068323;28;20885;-64
2022/04/26 18:07:19;;;;;;;1.40;1.25;;;;;;;;;;5068038;28;20477;-62
2022/04/26 18:09:45;;;;;;;0.68;0.68;;;;;;;;;;5069709;28;20480;-62
2022/04/26 18:12:12;;;;;;;0.00;0.00;;;;;;;;;;5065707;28;21502;-62
2022/04/26 18:14:38;;;;;;;0.00;0.00;;;;;;;;;;5067774;28;20032;-62
2022/04/26 18:17:04;;;;;;;0.00;0.00;;;;;;;;;;5067637;28;20366;-62
2022/04/26 18:19:30;;;;;;;0.00;0.00;;;;;;;;;;5067535;28;20085;-62
2022/04/26 18:21:55;;;;;;;0.20;0.20;;;;;;;;;;5067499;28;20017;-61
2022/04/26 18:24:20;;;;;;;0.00;0.00;;;;;;;;;;5068522;28;20461;-62
2022/04/26 18:26:46;;;;;;;0.00;0.00;;;;;;;;;;5067713;28;20093;-62
2022/04/26 18:29:19;;;;;;;0.00;0.00;;;;;;;;;;5067542;28;20024;-62
2022/04/26 18:31:46;;;;;;;2.28;1.15;;;;;;;;;;5068476;28;20859;-62
2022/04/26 18:34:13;;;;;;;0.00;0.00;;;;;;;;;;5067689;28;20024;-62
2022/04/26 18:36:38;;;;;;;0.00;0.00;;;;;;;;;;5068312;28;20031;-62
2022/04/26 18:39:08;;;;;;;0.00;0.00;;;;;;;;;;5067668;28;20458;-62
2022/04/26 18:41:34;;;;;;;0.03;0.03;;;;;;;;;;5066525;28;20029;-62
2022/04/26 18:43:59;;;;;;;0.28;0.28;;;;;;;;;;5067079;28;20013;-62
2022/04/26 18:46:26;;;;;;;1.30;0.93;;;;;;;;;;5067832;28;20017;-62
2022/04/26 18:48:51;;;;;;;0.30;0.30;;;;;;;;;;5068410;28;20040;-62
2022/04/26 18:51:17;;;;;;;0.60;0.60;;;;;;;;;;5067886;28;20028;-62
2022/04/26 18:53:42;;;;;;;0.05;0.05;;;;;;;;;;5068137;28;20021;-62
2022/04/26 18:56:08;;;;;;;0.47;0.47;;;;;;;;;;5066162;28;20385;-62
2022/04/26 18:58:34;;;;;;;0.98;0.98;;;;;;;;;;5067663;28;20173;-62
2022/04/26 19:01:00;;;;;;;0.00;0.00;;;;;;;;;;5069008;28;20024;-62
2022/04/26 19:03:25;;;;;;;0.00;0.00;;;;;;;;;;5067750;28;20461;-62
2022/04/26 19:05:50;;;;;;;0.00;0.00;;;;;;;;;;5067575;28;20042;-62